sensor_id;sensor_type;location;lat;lon;timestamp;P1;durP1;ratioP1;P2;durP2;ratioP2
18720;SDS011;9489;50.948;3.114;2022-09-03T00:01:47;15.85;;;14.45;;
18720;SDS011;9489;50.948;3.114;2022-09-03T00:04:21;14.82;;;13.73;;
18720;SDS011;9489;50.948;3.114;2022-09-03T00:08:04;14.73;;;13.63;;
18720;SDS011;9489;50.948;3.114;2022-09-03T00:10:20;15.18;;;14.07;;
18720;SDS011;9489;50.948;3.114;2022-09-03T00:13:00;13.48;;;12.50;;
18720;SDS011;9489;50.948;3.114;2022-09-03T00:15:30;13.77;;;12.80;;
18720;SDS011;9489;50.948;3.114;2022-09-03T00:18:03;15.05;;;13.95;;
18720;SDS011;9489;50.948;3.114;2022-09-03T00:20:33;16.52;;;15.32;;
18720;SDS011;9489;50.948;3.114;2022-09-03T00:23:07;18.67;;;17.10;;
18720;SDS011;9489;50.948;3.114;2022-09-03T00:28:16;18.90;;;17.33;;
18720;SDS011;9489;50.948;3.114;2022-09-03T00:30:50;20.25;;;18.75;;
18720;SDS011;9489;50.948;3.114;2022-09-03T00:33:21;19.63;;;18.23;;
18720;SDS011;9489;50.948;3.114;2022-09-03T00:38:31;19.52;;;18.02;;
18720;SDS011;9489;50.948;3.114;2022-09-03T00:41:03;20.73;;;18.98;;
18720;SDS011;9489;50.948;3.114;2022-09-03T00:46:43;21.00;;;19.30;;
18720;SDS011;9489;50.948;3.114;2022-09-03T00:49:29;21.27;;;19.58;;
18720;SDS011;9489;50.948;3.114;2022-09-03T00:54:59;18.02;;;16.73;;
18720;SDS011;9489;50.948;3.114;2022-09-03T00:57:40;18.77;;;17.38;;
18720;SDS011;9489;50.948;3.114;2022-09-03T01:00:21;22.02;;;20.25;;
18720;SDS011;9489;50.948;3.114;2022-09-03T01:03:06;19.65;;;17.95;;
18720;SDS011;9489;50.948;3.114;2022-09-03T01:05:41;19.50;;;18.00;;
18720;SDS011;9489;50.948;3.114;2022-09-03T01:11:37;20.60;;;19.02;;
18720;SDS011;9489;50.948;3.114;2022-09-03T01:14:21;17.70;;;16.50;;
18720;SDS011;9489;50.948;3.114;2022-09-03T01:22:36;17.58;;;16.27;;
18720;SDS011;9489;50.948;3.114;2022-09-03T01:25:14;21.80;;;20.10;;
18720;SDS011;9489;50.948;3.114;2022-09-03T01:31:36;21.08;;;19.48;;
18720;SDS011;9489;50.948;3.114;2022-09-03T01:40:09;23.83;;;22.02;;
18720;SDS011;9489;50.948;3.114;2022-09-03T01:50:44;24.02;;;22.15;;
18720;SDS011;9489;50.948;3.114;2022-09-03T01:59:01;24.45;;;22.48;;
18720;SDS011;9489;50.948;3.114;2022-09-03T02:01:40;26.67;;;24.58;;
18720;SDS011;9489;50.948;3.114;2022-09-03T02:04:20;25.63;;;23.65;;
18720;SDS011;9489;50.948;3.114;2022-09-03T02:06:49;27.17;;;25.05;;
18720;SDS011;9489;50.948;3.114;2022-09-03T02:09:17;26.90;;;24.75;;
18720;SDS011;9489;50.948;3.114;2022-09-03T02:11:45;28.20;;;25.80;;
18720;SDS011;9489;50.948;3.114;2022-09-03T02:14:21;24.83;;;22.88;;
18720;SDS011;9489;50.948;3.114;2022-09-03T02:16:47;23.85;;;21.83;;
18720;SDS011;9489;50.948;3.114;2022-09-03T02:19:14;24.98;;;22.98;;
18720;SDS011;9489;50.948;3.114;2022-09-03T02:21:51;24.80;;;22.83;;
18720;SDS011;9489;50.948;3.114;2022-09-03T02:24:18;27.85;;;25.55;;
18720;SDS011;9489;50.948;3.114;2022-09-03T02:26:44;27.83;;;25.63;;
18720;SDS011;9489;50.948;3.114;2022-09-03T02:29:10;26.60;;;24.55;;
18720;SDS011;9489;50.948;3.114;2022-09-03T02:31:38;26.50;;;24.17;;
18720;SDS011;9489;50.948;3.114;2022-09-03T02:34:03;23.23;;;21.48;;
18720;SDS011;9489;50.948;3.114;2022-09-03T02:36:30;25.88;;;23.75;;
18720;SDS011;9489;50.948;3.114;2022-09-03T02:38:59;26.98;;;24.70;;
18720;SDS011;9489;50.948;3.114;2022-09-03T02:41:25;24.23;;;22.23;;
18720;SDS011;9489;50.948;3.114;2022-09-03T02:43:57;25.92;;;23.65;;
18720;SDS011;9489;50.948;3.114;2022-09-03T02:46:26;21.42;;;19.73;;
18720;SDS011;9489;50.948;3.114;2022-09-03T02:48:58;21.77;;;20.10;;
18720;SDS011;9489;50.948;3.114;2022-09-03T02:51:24;21.90;;;20.17;;
18720;SDS011;9489;50.948;3.114;2022-09-03T02:53:49;28.98;;;26.55;;
18720;SDS011;9489;50.948;3.114;2022-09-03T02:56:15;27.88;;;25.65;;
18720;SDS011;9489;50.948;3.114;2022-09-03T02:58:41;29.20;;;26.80;;
18720;SDS011;9489;50.948;3.114;2022-09-03T03:01:06;26.88;;;24.67;;
18720;SDS011;9489;50.948;3.114;2022-09-03T03:03:32;24.42;;;22.48;;
18720;SDS011;9489;50.948;3.114;2022-09-03T03:05:59;21.58;;;19.67;;
18720;SDS011;9489;50.948;3.114;2022-09-03T03:08:28;22.55;;;20.75;;
18720;SDS011;9489;50.948;3.114;2022-09-03T03:10:57;21.55;;;19.75;;
18720;SDS011;9489;50.948;3.114;2022-09-03T03:13:25;24.33;;;22.42;;
18720;SDS011;9489;50.948;3.114;2022-09-03T03:15:51;26.55;;;24.48;;
18720;SDS011;9489;50.948;3.114;2022-09-03T03:18:19;26.65;;;24.60;;
18720;SDS011;9489;50.948;3.114;2022-09-03T03:20:45;28.10;;;25.80;;
18720;SDS011;9489;50.948;3.114;2022-09-03T03:23:12;23.02;;;21.23;;
18720;SDS011;9489;50.948;3.114;2022-09-03T03:25:38;27.13;;;25.00;;
18720;SDS011;9489;50.948;3.114;2022-09-03T03:28:04;26.15;;;23.98;;
18720;SDS011;9489;50.948;3.114;2022-09-03T03:30:30;28.73;;;26.23;;
18720;SDS011;9489;50.948;3.114;2022-09-03T03:32:56;29.73;;;27.20;;
18720;SDS011;9489;50.948;3.114;2022-09-03T03:35:22;29.80;;;27.33;;
18720;SDS011;9489;50.948;3.114;2022-09-03T03:37:48;28.92;;;26.67;;
18720;SDS011;9489;50.948;3.114;2022-09-03T03:40:13;27.50;;;25.08;;
18720;SDS011;9489;50.948;3.114;2022-09-03T03:42:39;30.33;;;27.95;;
18720;SDS011;9489;50.948;3.114;2022-09-03T03:45:06;28.95;;;26.73;;
18720;SDS011;9489;50.948;3.114;2022-09-03T03:47:32;26.80;;;24.45;;
18720;SDS011;9489;50.948;3.114;2022-09-03T03:49:58;25.83;;;23.80;;
18720;SDS011;9489;50.948;3.114;2022-09-03T03:52:24;25.17;;;23.15;;
18720;SDS011;9489;50.948;3.114;2022-09-03T03:54:51;31.55;;;29.05;;
18720;SDS011;9489;50.948;3.114;2022-09-03T03:57:17;29.92;;;27.48;;
18720;SDS011;9489;50.948;3.114;2022-09-03T03:59:44;29.50;;;27.00;;
18720;SDS011;9489;50.948;3.114;2022-09-03T04:02:10;31.52;;;28.92;;
18720;SDS011;9489;50.948;3.114;2022-09-03T04:04:36;31.55;;;28.63;;
18720;SDS011;9489;50.948;3.114;2022-09-03T04:07:02;31.10;;;28.48;;
18720;SDS011;9489;50.948;3.114;2022-09-03T04:09:28;32.47;;;29.80;;
18720;SDS011;9489;50.948;3.114;2022-09-03T04:11:54;27.38;;;25.13;;
18720;SDS011;9489;50.948;3.114;2022-09-03T04:14:21;27.50;;;25.10;;
18720;SDS011;9489;50.948;3.114;2022-09-03T04:16:47;32.45;;;29.65;;
18720;SDS011;9489;50.948;3.114;2022-09-03T04:19:14;30.98;;;28.25;;
18720;SDS011;9489;50.948;3.114;2022-09-03T04:21:40;27.92;;;25.73;;
18720;SDS011;9489;50.948;3.114;2022-09-03T04:24:06;32.70;;;30.02;;
18720;SDS011;9489;50.948;3.114;2022-09-03T04:26:32;32.75;;;30.08;;
18720;SDS011;9489;50.948;3.114;2022-09-03T04:29:07;26.90;;;24.73;;
18720;SDS011;9489;50.948;3.114;2022-09-03T04:31:34;25.58;;;23.58;;
18720;SDS011;9489;50.948;3.114;2022-09-03T04:34:01;30.13;;;27.70;;
18720;SDS011;9489;50.948;3.114;2022-09-03T04:36:27;29.08;;;26.75;;
18720;SDS011;9489;50.948;3.114;2022-09-03T04:38:56;27.38;;;25.02;;
18720;SDS011;9489;50.948;3.114;2022-09-03T04:41:24;28.65;;;26.33;;
18720;SDS011;9489;50.948;3.114;2022-09-03T04:43:52;29.10;;;26.83;;
18720;SDS011;9489;50.948;3.114;2022-09-03T04:46:19;32.50;;;29.80;;
18720;SDS011;9489;50.948;3.114;2022-09-03T04:48:48;28.73;;;26.27;;
18720;SDS011;9489;50.948;3.114;2022-09-03T04:51:15;27.08;;;24.98;;
18720;SDS011;9489;50.948;3.114;2022-09-03T04:53:44;30.73;;;28.27;;
18720;SDS011;9489;50.948;3.114;2022-09-03T04:56:15;32.40;;;29.60;;
18720;SDS011;9489;50.948;3.114;2022-09-03T04:58:42;32.35;;;29.75;;
18720;SDS011;9489;50.948;3.114;2022-09-03T05:01:17;32.55;;;29.63;;
18720;SDS011;9489;50.948;3.114;2022-09-03T05:03:44;30.63;;;28.05;;
18720;SDS011;9489;50.948;3.114;2022-09-03T05:06:11;29.25;;;26.83;;
18720;SDS011;9489;50.948;3.114;2022-09-03T05:08:38;32.22;;;29.52;;
18720;SDS011;9489;50.948;3.114;2022-09-03T05:11:05;31.55;;;29.02;;
18720;SDS011;9489;50.948;3.114;2022-09-03T05:13:32;31.42;;;28.83;;
18720;SDS011;9489;50.948;3.114;2022-09-03T05:16:02;27.23;;;24.83;;
18720;SDS011;9489;50.948;3.114;2022-09-03T05:18:30;30.67;;;27.95;;
18720;SDS011;9489;50.948;3.114;2022-09-03T05:21:03;31.98;;;29.33;;
18720;SDS011;9489;50.948;3.114;2022-09-03T05:23:37;28.30;;;25.83;;
18720;SDS011;9489;50.948;3.114;2022-09-03T05:26:06;30.65;;;27.95;;
18720;SDS011;9489;50.948;3.114;2022-09-03T05:28:34;30.55;;;27.98;;
18720;SDS011;9489;50.948;3.114;2022-09-03T05:31:03;30.88;;;28.17;;
18720;SDS011;9489;50.948;3.114;2022-09-03T05:33:34;31.73;;;29.00;;
18720;SDS011;9489;50.948;3.114;2022-09-03T05:36:02;32.03;;;29.40;;
18720;SDS011;9489;50.948;3.114;2022-09-03T05:38:29;30.88;;;28.27;;
18720;SDS011;9489;50.948;3.114;2022-09-03T05:41:01;30.40;;;27.65;;
18720;SDS011;9489;50.948;3.114;2022-09-03T05:43:28;26.70;;;24.48;;
18720;SDS011;9489;50.948;3.114;2022-09-03T05:46:02;26.00;;;23.92;;
18720;SDS011;9489;50.948;3.114;2022-09-03T05:48:30;32.28;;;29.38;;
18720;SDS011;9489;50.948;3.114;2022-09-03T05:51:01;32.42;;;29.35;;
18720;SDS011;9489;50.948;3.114;2022-09-03T05:53:29;28.25;;;25.77;;
18720;SDS011;9489;50.948;3.114;2022-09-03T05:55:56;25.73;;;23.52;;
18720;SDS011;9489;50.948;3.114;2022-09-03T05:58:24;27.15;;;24.85;;
18720;SDS011;9489;50.948;3.114;2022-09-03T06:00:54;24.40;;;22.40;;
18720;SDS011;9489;50.948;3.114;2022-09-03T06:03:19;24.85;;;22.75;;
18720;SDS011;9489;50.948;3.114;2022-09-03T06:05:49;25.30;;;23.27;;
18720;SDS011;9489;50.948;3.114;2022-09-03T06:08:15;23.65;;;21.83;;
18720;SDS011;9489;50.948;3.114;2022-09-03T06:10:41;26.77;;;24.38;;
18720;SDS011;9489;50.948;3.114;2022-09-03T06:13:06;25.48;;;23.33;;
18720;SDS011;9489;50.948;3.114;2022-09-03T06:15:32;26.38;;;24.27;;
18720;SDS011;9489;50.948;3.114;2022-09-03T06:17:57;27.88;;;25.48;;
18720;SDS011;9489;50.948;3.114;2022-09-03T06:20:23;28.45;;;25.90;;
18720;SDS011;9489;50.948;3.114;2022-09-03T06:22:51;29.13;;;26.52;;
18720;SDS011;9489;50.948;3.114;2022-09-03T06:25:17;26.60;;;24.23;;
18720;SDS011;9489;50.948;3.114;2022-09-03T06:27:43;27.63;;;25.42;;
18720;SDS011;9489;50.948;3.114;2022-09-03T06:30:10;27.13;;;24.92;;
18720;SDS011;9489;50.948;3.114;2022-09-03T06:32:45;27.08;;;24.80;;
18720;SDS011;9489;50.948;3.114;2022-09-03T06:35:11;28.25;;;25.70;;
18720;SDS011;9489;50.948;3.114;2022-09-03T06:37:41;28.38;;;25.95;;
18720;SDS011;9489;50.948;3.114;2022-09-03T06:40:08;28.95;;;26.42;;
18720;SDS011;9489;50.948;3.114;2022-09-03T06:42:40;25.35;;;23.23;;
18720;SDS011;9489;50.948;3.114;2022-09-03T06:45:09;26.80;;;24.70;;
18720;SDS011;9489;50.948;3.114;2022-09-03T06:47:35;27.38;;;25.00;;
18720;SDS011;9489;50.948;3.114;2022-09-03T06:50:01;25.70;;;23.38;;
18720;SDS011;9489;50.948;3.114;2022-09-03T06:52:27;23.77;;;21.70;;
18720;SDS011;9489;50.948;3.114;2022-09-03T06:54:53;25.60;;;23.50;;
18720;SDS011;9489;50.948;3.114;2022-09-03T06:57:19;25.60;;;23.40;;
18720;SDS011;9489;50.948;3.114;2022-09-03T06:59:45;26.02;;;23.90;;
18720;SDS011;9489;50.948;3.114;2022-09-03T07:02:11;25.45;;;23.25;;
18720;SDS011;9489;50.948;3.114;2022-09-03T07:04:36;24.92;;;22.73;;
18720;SDS011;9489;50.948;3.114;2022-09-03T07:07:02;26.20;;;24.05;;
18720;SDS011;9489;50.948;3.114;2022-09-03T07:09:28;24.30;;;22.30;;
18720;SDS011;9489;50.948;3.114;2022-09-03T07:11:53;24.42;;;22.33;;
18720;SDS011;9489;50.948;3.114;2022-09-03T07:14:20;24.50;;;22.40;;
18720;SDS011;9489;50.948;3.114;2022-09-03T07:16:46;24.33;;;22.42;;
18720;SDS011;9489;50.948;3.114;2022-09-03T07:19:13;23.70;;;21.67;;
18720;SDS011;9489;50.948;3.114;2022-09-03T07:21:39;24.33;;;22.38;;
18720;SDS011;9489;50.948;3.114;2022-09-03T07:24:06;23.92;;;22.00;;
18720;SDS011;9489;50.948;3.114;2022-09-03T07:26:33;23.98;;;22.00;;
18720;SDS011;9489;50.948;3.114;2022-09-03T07:29:00;21.63;;;19.92;;
18720;SDS011;9489;50.948;3.114;2022-09-03T07:31:30;23.15;;;21.25;;
18720;SDS011;9489;50.948;3.114;2022-09-03T07:33:59;22.63;;;20.45;;
18720;SDS011;9489;50.948;3.114;2022-09-03T07:36:26;23.42;;;21.60;;
18720;SDS011;9489;50.948;3.114;2022-09-03T07:38:54;22.55;;;20.75;;
18720;SDS011;9489;50.948;3.114;2022-09-03T07:41:21;20.58;;;19.02;;
18720;SDS011;9489;50.948;3.114;2022-09-03T07:43:47;22.42;;;20.35;;
18720;SDS011;9489;50.948;3.114;2022-09-03T07:46:13;21.15;;;19.25;;
18720;SDS011;9489;50.948;3.114;2022-09-03T07:48:47;21.83;;;20.10;;
18720;SDS011;9489;50.948;3.114;2022-09-03T07:51:17;22.08;;;20.23;;
18720;SDS011;9489;50.948;3.114;2022-09-03T07:53:45;22.30;;;20.60;;
18720;SDS011;9489;50.948;3.114;2022-09-03T07:56:11;22.55;;;20.75;;
18720;SDS011;9489;50.948;3.114;2022-09-03T07:58:38;22.67;;;20.77;;
18720;SDS011;9489;50.948;3.114;2022-09-03T08:01:10;20.98;;;19.38;;
18720;SDS011;9489;50.948;3.114;2022-09-03T08:03:37;23.30;;;21.50;;
18720;SDS011;9489;50.948;3.114;2022-09-03T08:06:07;21.88;;;20.13;;
18720;SDS011;9489;50.948;3.114;2022-09-03T08:08:33;19.98;;;18.45;;
18720;SDS011;9489;50.948;3.114;2022-09-03T08:11:19;19.70;;;18.05;;
18720;SDS011;9489;50.948;3.114;2022-09-03T08:13:53;19.77;;;18.27;;
18720;SDS011;9489;50.948;3.114;2022-09-03T08:16:25;19.55;;;18.15;;
18720;SDS011;9489;50.948;3.114;2022-09-03T08:18:51;19.38;;;17.83;;
18720;SDS011;9489;50.948;3.114;2022-09-03T08:21:18;20.80;;;19.00;;
18720;SDS011;9489;50.948;3.114;2022-09-03T08:23:48;19.85;;;18.02;;
18720;SDS011;9489;50.948;3.114;2022-09-03T08:26:16;18.20;;;16.73;;
18720;SDS011;9489;50.948;3.114;2022-09-03T08:28:43;19.23;;;17.88;;
18720;SDS011;9489;50.948;3.114;2022-09-03T08:31:12;18.05;;;16.55;;
18720;SDS011;9489;50.948;3.114;2022-09-03T08:33:44;17.85;;;16.40;;
18720;SDS011;9489;50.948;3.114;2022-09-03T08:36:13;17.83;;;16.52;;
18720;SDS011;9489;50.948;3.114;2022-09-03T08:38:41;19.27;;;17.75;;
18720;SDS011;9489;50.948;3.114;2022-09-03T08:41:18;18.67;;;17.23;;
18720;SDS011;9489;50.948;3.114;2022-09-03T08:49:19;18.70;;;17.30;;
18720;SDS011;9489;50.948;3.114;2022-09-03T08:51:55;17.30;;;16.00;;
18720;SDS011;9489;50.948;3.114;2022-09-03T08:54:28;17.50;;;16.10;;
18720;SDS011;9489;50.948;3.114;2022-09-03T08:56:55;17.60;;;16.30;;
18720;SDS011;9489;50.948;3.114;2022-09-03T08:59:26;19.60;;;17.98;;
18720;SDS011;9489;50.948;3.114;2022-09-03T09:01:55;17.50;;;16.13;;
18720;SDS011;9489;50.948;3.114;2022-09-03T09:08:05;17.85;;;16.35;;
18720;SDS011;9489;50.948;3.114;2022-09-03T09:10:38;18.20;;;16.83;;
18720;SDS011;9489;50.948;3.114;2022-09-03T09:21:16;16.83;;;15.48;;
18720;SDS011;9489;50.948;3.114;2022-09-03T09:23:48;17.23;;;15.93;;
18720;SDS011;9489;50.948;3.114;2022-09-03T09:26:18;17.55;;;16.10;;
18720;SDS011;9489;50.948;3.114;2022-09-03T09:28:46;16.00;;;14.70;;
18720;SDS011;9489;50.948;3.114;2022-09-03T09:31:17;16.67;;;15.38;;
18720;SDS011;9489;50.948;3.114;2022-09-03T09:33:44;17.90;;;16.60;;
18720;SDS011;9489;50.948;3.114;2022-09-03T09:36:11;17.38;;;15.88;;
18720;SDS011;9489;50.948;3.114;2022-09-03T09:38:43;17.00;;;15.65;;
18720;SDS011;9489;50.948;3.114;2022-09-03T09:43:39;16.35;;;15.25;;
18720;SDS011;9489;50.948;3.114;2022-09-03T09:46:07;17.35;;;16.02;;
18720;SDS011;9489;50.948;3.114;2022-09-03T09:48:42;18.83;;;17.33;;
18720;SDS011;9489;50.948;3.114;2022-09-03T09:51:24;17.67;;;16.42;;
18720;SDS011;9489;50.948;3.114;2022-09-03T09:56:38;16.42;;;14.95;;
18720;SDS011;9489;50.948;3.114;2022-09-03T09:59:07;19.05;;;17.67;;
18720;SDS011;9489;50.948;3.114;2022-09-03T10:01:35;17.50;;;16.20;;
18720;SDS011;9489;50.948;3.114;2022-09-03T10:04:22;18.20;;;16.85;;
18720;SDS011;9489;50.948;3.114;2022-09-03T10:06:53;18.48;;;17.17;;
18720;SDS011;9489;50.948;3.114;2022-09-03T10:09:31;17.42;;;16.15;;
18720;SDS011;9489;50.948;3.114;2022-09-03T10:14:32;17.77;;;16.52;;
18720;SDS011;9489;50.948;3.114;2022-09-03T10:17:22;15.65;;;14.57;;
18720;SDS011;9489;50.948;3.114;2022-09-03T10:23:17;14.50;;;13.38;;
18720;SDS011;9489;50.948;3.114;2022-09-03T10:28:32;13.68;;;12.77;;
18720;SDS011;9489;50.948;3.114;2022-09-03T10:31:21;12.90;;;12.05;;
18720;SDS011;9489;50.948;3.114;2022-09-03T10:34:17;12.43;;;11.52;;
18720;SDS011;9489;50.948;3.114;2022-09-03T10:37:01;12.13;;;11.32;;
18720;SDS011;9489;50.948;3.114;2022-09-03T10:39:51;12.57;;;11.63;;
18720;SDS011;9489;50.948;3.114;2022-09-03T10:45:37;13.23;;;12.23;;
18720;SDS011;9489;50.948;3.114;2022-09-03T10:50:57;13.20;;;12.20;;
18720;SDS011;9489;50.948;3.114;2022-09-03T10:56:31;13.18;;;12.18;;
18720;SDS011;9489;50.948;3.114;2022-09-03T11:04:52;14.32;;;13.32;;
18720;SDS011;9489;50.948;3.114;2022-09-03T11:07:24;14.45;;;13.45;;
18720;SDS011;9489;50.948;3.114;2022-09-03T11:10:17;16.58;;;15.38;;
18720;SDS011;9489;50.948;3.114;2022-09-03T11:12:45;14.10;;;13.10;;
18720;SDS011;9489;50.948;3.114;2022-09-03T11:20:25;16.73;;;15.52;;
18720;SDS011;9489;50.948;3.114;2022-09-03T11:22:58;15.75;;;14.63;;
18720;SDS011;9489;50.948;3.114;2022-09-03T11:25:30;15.25;;;14.25;;
18720;SDS011;9489;50.948;3.114;2022-09-03T11:33:27;13.05;;;12.15;;
18720;SDS011;9489;50.948;3.114;2022-09-03T11:35:56;14.85;;;13.73;;
18720;SDS011;9489;50.948;3.114;2022-09-03T11:38:25;12.13;;;11.25;;
18720;SDS011;9489;50.948;3.114;2022-09-03T11:43:26;13.23;;;12.35;;
18720;SDS011;9489;50.948;3.114;2022-09-03T11:46:39;12.00;;;11.13;;
18720;SDS011;9489;50.948;3.114;2022-09-03T11:48:46;11.43;;;10.73;;
18720;SDS011;9489;50.948;3.114;2022-09-03T11:54:05;8.63;;;8.13;;
18720;SDS011;9489;50.948;3.114;2022-09-03T11:56:35;8.40;;;7.80;;
18720;SDS011;9489;50.948;3.114;2022-09-03T12:01:29;8.68;;;8.07;;
18720;SDS011;9489;50.948;3.114;2022-09-03T12:03:57;9.27;;;8.68;;
18720;SDS011;9489;50.948;3.114;2022-09-03T12:09:38;8.57;;;7.97;;
18720;SDS011;9489;50.948;3.114;2022-09-03T12:12:25;8.38;;;7.88;;
18720;SDS011;9489;50.948;3.114;2022-09-03T12:20:39;9.05;;;8.45;;
18720;SDS011;9489;50.948;3.114;2022-09-03T12:23:05;9.13;;;8.52;;
18720;SDS011;9489;50.948;3.114;2022-09-03T12:25:31;8.93;;;8.32;;
18720;SDS011;9489;50.948;3.114;2022-09-03T12:27:57;8.00;;;7.38;;
18720;SDS011;9489;50.948;3.114;2022-09-03T12:30:27;8.40;;;7.82;;
18720;SDS011;9489;50.948;3.114;2022-09-03T12:33:16;10.18;;;9.43;;
18720;SDS011;9489;50.948;3.114;2022-09-03T12:35:41;10.82;;;10.02;;
18720;SDS011;9489;50.948;3.114;2022-09-03T12:38:07;9.45;;;8.85;;
18720;SDS011;9489;50.948;3.114;2022-09-03T12:40:39;10.02;;;9.32;;
18720;SDS011;9489;50.948;3.114;2022-09-03T12:43:14;8.65;;;8.02;;
18720;SDS011;9489;50.948;3.114;2022-09-03T12:45:42;9.82;;;9.20;;
18720;SDS011;9489;50.948;3.114;2022-09-03T12:48:27;9.05;;;8.35;;
18720;SDS011;9489;50.948;3.114;2022-09-03T12:51:00;8.07;;;7.63;;
18720;SDS011;9489;50.948;3.114;2022-09-03T12:53:26;7.38;;;6.78;;
18720;SDS011;9489;50.948;3.114;2022-09-03T12:55:55;5.78;;;5.32;;
18720;SDS011;9489;50.948;3.114;2022-09-03T12:58:23;6.57;;;6.18;;
18720;SDS011;9489;50.948;3.114;2022-09-03T13:00:56;5.50;;;5.10;;
18720;SDS011;9489;50.948;3.114;2022-09-03T13:06:26;6.82;;;6.43;;
18720;SDS011;9489;50.948;3.114;2022-09-03T13:09:03;6.65;;;6.25;;
18720;SDS011;9489;50.948;3.114;2022-09-03T13:11:33;7.75;;;6.80;;
18720;SDS011;9489;50.948;3.114;2022-09-03T13:25:03;6.70;;;6.22;;
18720;SDS011;9489;50.948;3.114;2022-09-03T13:30:19;6.65;;;6.22;;
18720;SDS011;9489;50.948;3.114;2022-09-03T13:35:36;5.53;;;5.10;;
18720;SDS011;9489;50.948;3.114;2022-09-03T13:40:45;5.68;;;4.50;;
18720;SDS011;9489;50.948;3.114;2022-09-03T13:51:30;6.05;;;5.68;;
18720;SDS011;9489;50.948;3.114;2022-09-03T13:56:54;6.72;;;6.22;;
18720;SDS011;9489;50.948;3.114;2022-09-03T14:02:25;6.97;;;6.47;;
18720;SDS011;9489;50.948;3.114;2022-09-03T14:07:33;6.28;;;5.88;;
18720;SDS011;9489;50.948;3.114;2022-09-03T14:12:43;6.18;;;5.68;;
18720;SDS011;9489;50.948;3.114;2022-09-03T14:15:21;6.85;;;6.35;;
18720;SDS011;9489;50.948;3.114;2022-09-03T14:20:57;6.95;;;6.53;;
18720;SDS011;9489;50.948;3.114;2022-09-03T14:23:39;6.85;;;6.35;;
18720;SDS011;9489;50.948;3.114;2022-09-03T14:26:48;7.38;;;6.80;;
18720;SDS011;9489;50.948;3.114;2022-09-03T14:29:14;7.10;;;6.60;;
18720;SDS011;9489;50.948;3.114;2022-09-03T14:48:27;7.75;;;7.28;;
18720;SDS011;9489;50.948;3.114;2022-09-03T14:56:38;7.15;;;6.55;;
18720;SDS011;9489;50.948;3.114;2022-09-03T15:05:10;6.55;;;6.15;;
18720;SDS011;9489;50.948;3.114;2022-09-03T15:08:00;6.63;;;6.13;;
18720;SDS011;9489;50.948;3.114;2022-09-03T15:26:34;6.80;;;6.40;;
18720;SDS011;9489;50.948;3.114;2022-09-03T15:32:05;5.57;;;5.22;;
18720;SDS011;9489;50.948;3.114;2022-09-03T15:34:52;5.07;;;4.78;;
18720;SDS011;9489;50.948;3.114;2022-09-03T15:58:51;3.92;;;3.63;;
18720;SDS011;9489;50.948;3.114;2022-09-03T16:04:18;4.30;;;4.00;;
18720;SDS011;9489;50.948;3.114;2022-09-03T16:06:52;4.55;;;4.13;;
18720;SDS011;9489;50.948;3.114;2022-09-03T16:09:37;4.10;;;3.80;;
18720;SDS011;9489;50.948;3.114;2022-09-03T16:12:20;4.05;;;3.78;;
18720;SDS011;9489;50.948;3.114;2022-09-03T16:15:18;4.45;;;4.05;;
18720;SDS011;9489;50.948;3.114;2022-09-03T16:20:42;3.88;;;3.58;;
18720;SDS011;9489;50.948;3.114;2022-09-03T16:23:25;5.20;;;4.80;;
18720;SDS011;9489;50.948;3.114;2022-09-03T16:26:15;4.50;;;3.55;;
18720;SDS011;9489;50.948;3.114;2022-09-03T16:28:54;5.22;;;4.80;;
18720;SDS011;9489;50.948;3.114;2022-09-03T16:36:47;5.00;;;4.43;;
18720;SDS011;9489;50.948;3.114;2022-09-03T16:39:32;5.85;;;5.45;;
18720;SDS011;9489;50.948;3.114;2022-09-03T16:45:23;5.85;;;5.45;;
18720;SDS011;9489;50.948;3.114;2022-09-03T16:48:01;5.97;;;5.47;;
18720;SDS011;9489;50.948;3.114;2022-09-03T16:53:15;5.65;;;5.30;;
18720;SDS011;9489;50.948;3.114;2022-09-03T16:58:53;5.60;;;5.20;;
18720;SDS011;9489;50.948;3.114;2022-09-03T17:04:35;17.42;;;15.80;;
18720;SDS011;9489;50.948;3.114;2022-09-03T17:07:30;19.92;;;18.33;;
18720;SDS011;9489;50.948;3.114;2022-09-03T17:10:30;22.73;;;20.92;;
18720;SDS011;9489;50.948;3.114;2022-09-03T17:22:15;10.48;;;9.52;;
18720;SDS011;9489;50.948;3.114;2022-09-03T17:25:03;9.27;;;8.57;;
18720;SDS011;9489;50.948;3.114;2022-09-03T17:27:58;10.57;;;9.77;;
18720;SDS011;9489;50.948;3.114;2022-09-03T17:30:27;13.93;;;12.77;;
18720;SDS011;9489;50.948;3.114;2022-09-03T17:33:26;16.52;;;15.35;;
18720;SDS011;9489;50.948;3.114;2022-09-03T17:36:05;19.75;;;18.05;;
18720;SDS011;9489;50.948;3.114;2022-09-03T17:41:45;25.20;;;23.17;;
18720;SDS011;9489;50.948;3.114;2022-09-03T17:50:07;29.25;;;26.88;;
18720;SDS011;9489;50.948;3.114;2022-09-03T17:52:49;29.58;;;27.17;;
18720;SDS011;9489;50.948;3.114;2022-09-03T17:55:33;33.15;;;30.35;;
18720;SDS011;9489;50.948;3.114;2022-09-03T17:58:12;27.77;;;25.58;;
18720;SDS011;9489;50.948;3.114;2022-09-03T18:00:57;22.70;;;20.73;;
18720;SDS011;9489;50.948;3.114;2022-09-03T18:11:21;16.13;;;14.77;;
18720;SDS011;9489;50.948;3.114;2022-09-03T18:16:26;14.73;;;13.55;;
18720;SDS011;9489;50.948;3.114;2022-09-03T18:19:05;15.32;;;14.13;;
18720;SDS011;9489;50.948;3.114;2022-09-03T18:21:43;16.55;;;15.32;;
18720;SDS011;9489;50.948;3.114;2022-09-03T18:24:32;17.33;;;16.08;;
18720;SDS011;9489;50.948;3.114;2022-09-03T18:27:35;19.58;;;17.88;;
18720;SDS011;9489;50.948;3.114;2022-09-03T18:30:26;17.73;;;16.33;;
18720;SDS011;9489;50.948;3.114;2022-09-03T18:33:11;17.15;;;15.85;;
18720;SDS011;9489;50.948;3.114;2022-09-03T18:35:55;19.08;;;17.60;;
18720;SDS011;9489;50.948;3.114;2022-09-03T18:38:41;17.48;;;16.02;;
18720;SDS011;9489;50.948;3.114;2022-09-03T18:41:41;15.68;;;14.52;;
18720;SDS011;9489;50.948;3.114;2022-09-03T18:47:37;18.45;;;17.05;;
18720;SDS011;9489;50.948;3.114;2022-09-03T18:59:41;21.13;;;19.48;;
18720;SDS011;9489;50.948;3.114;2022-09-03T19:14:52;40.05;;;36.65;;
18720;SDS011;9489;50.948;3.114;2022-09-03T19:24:11;44.38;;;40.55;;
18720;SDS011;9489;50.948;3.114;2022-09-03T19:27:10;44.13;;;40.30;;
18720;SDS011;9489;50.948;3.114;2022-09-03T19:30:02;53.67;;;49.35;;
18720;SDS011;9489;50.948;3.114;2022-09-03T19:32:57;50.80;;;46.40;;
18720;SDS011;9489;50.948;3.114;2022-09-03T19:36:21;49.63;;;45.42;;
18720;SDS011;9489;50.948;3.114;2022-09-03T19:39:30;57.95;;;52.85;;
18720;SDS011;9489;50.948;3.114;2022-09-03T19:51:57;56.15;;;51.20;;
18720;SDS011;9489;50.948;3.114;2022-09-03T19:55:11;54.13;;;49.33;;
18720;SDS011;9489;50.948;3.114;2022-09-03T19:58:03;60.95;;;55.53;;
18720;SDS011;9489;50.948;3.114;2022-09-03T20:00:47;54.30;;;49.35;;
18720;SDS011;9489;50.948;3.114;2022-09-03T20:03:32;58.70;;;53.22;;
18720;SDS011;9489;50.948;3.114;2022-09-03T20:06:19;57.38;;;52.17;;
18720;SDS011;9489;50.948;3.114;2022-09-03T20:09:08;55.83;;;50.95;;
18720;SDS011;9489;50.948;3.114;2022-09-03T20:11:57;58.05;;;53.03;;
18720;SDS011;9489;50.948;3.114;2022-09-03T20:14:26;58.50;;;53.20;;
18720;SDS011;9489;50.948;3.114;2022-09-03T20:16:58;66.78;;;60.78;;
18720;SDS011;9489;50.948;3.114;2022-09-03T20:19:32;66.50;;;60.38;;
18720;SDS011;9489;50.948;3.114;2022-09-03T20:30:18;65.10;;;59.35;;
18720;SDS011;9489;50.948;3.114;2022-09-03T20:52:18;54.20;;;49.30;;
18720;SDS011;9489;50.948;3.114;2022-09-03T20:55:11;51.28;;;46.85;;
18720;SDS011;9489;50.948;3.114;2022-09-03T20:57:47;47.95;;;43.80;;
18720;SDS011;9489;50.948;3.114;2022-09-03T21:00:20;56.53;;;51.25;;
18720;SDS011;9489;50.948;3.114;2022-09-03T21:14:48;50.08;;;45.72;;
18720;SDS011;9489;50.948;3.114;2022-09-03T21:17:35;43.60;;;39.97;;